sensor_id;sensor_type;location;lat;lon;timestamp;P1;durP1;ratioP1;P2;durP2;ratioP2
64950;SDS011;51482;47.014;7.652;2022-09-01T00:00:38;7.45;;;6.13;;
64950;SDS011;51482;47.014;7.652;2022-09-01T00:03:05;7.40;;;6.70;;
64950;SDS011;51482;47.014;7.652;2022-09-01T00:05:33;7.05;;;6.35;;
64950;SDS011;51482;47.014;7.652;2022-09-01T00:07:58;7.93;;;6.28;;
64950;SDS011;51482;47.014;7.652;2022-09-01T00:10:24;8.85;;;6.25;;
64950;SDS011;51482;47.014;7.652;2022-09-01T00:12:49;8.00;;;7.18;;
64950;SDS011;51482;47.014;7.652;2022-09-01T00:15:15;7.82;;;6.72;;
64950;SDS011;51482;47.014;7.652;2022-09-01T00:17:41;8.65;;;6.07;;
64950;SDS011;51482;47.014;7.652;2022-09-01T00:20:07;8.10;;;6.75;;
64950;SDS011;51482;47.014;7.652;2022-09-01T00:22:33;7.72;;;6.90;;
64950;SDS011;51482;47.014;7.652;2022-09-01T00:24:58;7.88;;;6.72;;
64950;SDS011;51482;47.014;7.652;2022-09-01T00:27:25;7.30;;;6.60;;
64950;SDS011;51482;47.014;7.652;2022-09-01T00:29:51;9.82;;;6.82;;
64950;SDS011;51482;47.014;7.652;2022-09-01T00:32:17;6.90;;;6.13;;
64950;SDS011;51482;47.014;7.652;2022-09-01T00:34:42;6.95;;;6.25;;
64950;SDS011;51482;47.014;7.652;2022-09-01T00:37:08;7.55;;;6.28;;
64950;SDS011;51482;47.014;7.652;2022-09-01T00:39:34;7.07;;;6.30;;
64950;SDS011;51482;47.014;7.652;2022-09-01T00:41:59;9.43;;;6.43;;
64950;SDS011;51482;47.014;7.652;2022-09-01T00:44:26;6.15;;;5.65;;
64950;SDS011;51482;47.014;7.652;2022-09-01T00:46:52;8.20;;;6.60;;
64950;SDS011;51482;47.014;7.652;2022-09-01T00:51:51;8.02;;;6.50;;
64950;SDS011;51482;47.014;7.652;2022-09-01T00:54:21;7.10;;;6.13;;
64950;SDS011;51482;47.014;7.652;2022-09-01T00:56:50;7.13;;;5.97;;
64950;SDS011;51482;47.014;7.652;2022-09-01T00:59:17;7.00;;;6.30;;
64950;SDS011;51482;47.014;7.652;2022-09-01T01:01:46;7.45;;;6.18;;
64950;SDS011;51482;47.014;7.652;2022-09-01T01:04:12;8.07;;;6.07;;
64950;SDS011;51482;47.014;7.652;2022-09-01T01:06:45;7.50;;;6.00;;
64950;SDS011;51482;47.014;7.652;2022-09-01T01:09:24;6.57;;;5.88;;
64950;SDS011;51482;47.014;7.652;2022-09-01T01:11:58;7.03;;;6.32;;
64950;SDS011;51482;47.014;7.652;2022-09-01T01:14:27;6.97;;;6.20;;
64950;SDS011;51482;47.014;7.652;2022-09-01T01:16:55;7.38;;;6.35;;
64950;SDS011;51482;47.014;7.652;2022-09-01T01:19:38;7.53;;;6.82;;
64950;SDS011;51482;47.014;7.652;2022-09-01T01:22:41;8.13;;;6.47;;
64950;SDS011;51482;47.014;7.652;2022-09-01T01:26:07;6.68;;;6.07;;
64950;SDS011;51482;47.014;7.652;2022-09-01T01:28:29;8.55;;;6.50;;
64950;SDS011;51482;47.014;7.652;2022-09-01T01:33:31;7.95;;;7.05;;
64950;SDS011;51482;47.014;7.652;2022-09-01T01:36:06;8.30;;;5.78;;
64950;SDS011;51482;47.014;7.652;2022-09-01T01:38:36;7.40;;;6.03;;
64950;SDS011;51482;47.014;7.652;2022-09-01T01:41:07;6.97;;;5.75;;
64950;SDS011;51482;47.014;7.652;2022-09-01T01:43:34;7.18;;;6.03;;
64950;SDS011;51482;47.014;7.652;2022-09-01T01:46:02;6.63;;;5.70;;
64950;SDS011;51482;47.014;7.652;2022-09-01T01:48:30;7.28;;;6.10;;
64950;SDS011;51482;47.014;7.652;2022-09-01T01:50:59;8.70;;;6.80;;
64950;SDS011;51482;47.014;7.652;2022-09-01T01:53:25;6.80;;;6.20;;
64950;SDS011;51482;47.014;7.652;2022-09-01T01:55:52;8.45;;;7.50;;
64950;SDS011;51482;47.014;7.652;2022-09-01T01:58:18;9.18;;;7.22;;
64950;SDS011;51482;47.014;7.652;2022-09-01T02:00:46;8.25;;;7.30;;
64950;SDS011;51482;47.014;7.652;2022-09-01T02:03:15;8.10;;;7.22;;
64950;SDS011;51482;47.014;7.652;2022-09-01T02:05:43;8.63;;;7.30;;
64950;SDS011;51482;47.014;7.652;2022-09-01T02:08:10;11.40;;;7.35;;
64950;SDS011;51482;47.014;7.652;2022-09-01T02:10:41;8.32;;;7.40;;
64950;SDS011;51482;47.014;7.652;2022-09-01T02:13:10;10.20;;;7.75;;
64950;SDS011;51482;47.014;7.652;2022-09-01T02:15:41;8.88;;;7.40;;
64950;SDS011;51482;47.014;7.652;2022-09-01T02:18:14;9.23;;;7.00;;
64950;SDS011;51482;47.014;7.652;2022-09-01T02:20:45;8.52;;;6.75;;
64950;SDS011;51482;47.014;7.652;2022-09-01T02:23:13;8.25;;;7.38;;
64950;SDS011;51482;47.014;7.652;2022-09-01T02:25:44;7.88;;;6.65;;
64950;SDS011;51482;47.014;7.652;2022-09-01T02:28:11;8.65;;;6.80;;
64950;SDS011;51482;47.014;7.652;2022-09-01T02:30:43;9.07;;;7.15;;
64950;SDS011;51482;47.014;7.652;2022-09-01T02:33:11;8.32;;;7.05;;
64950;SDS011;51482;47.014;7.652;2022-09-01T02:35:43;8.50;;;6.22;;
64950;SDS011;51482;47.014;7.652;2022-09-01T02:38:13;7.50;;;6.80;;
64950;SDS011;51482;47.014;7.652;2022-09-01T02:40:41;8.57;;;7.05;;
64950;SDS011;51482;47.014;7.652;2022-09-01T02:43:11;9.35;;;6.60;;
64950;SDS011;51482;47.014;7.652;2022-09-01T02:45:37;8.38;;;7.43;;
64950;SDS011;51482;47.014;7.652;2022-09-01T02:48:06;8.38;;;7.00;;
64950;SDS011;51482;47.014;7.652;2022-09-01T02:50:33;7.97;;;7.18;;
64950;SDS011;51482;47.014;7.652;2022-09-01T02:52:59;8.82;;;7.40;;
64950;SDS011;51482;47.014;7.652;2022-09-01T02:55:26;8.07;;;6.97;;
64950;SDS011;51482;47.014;7.652;2022-09-01T02:57:52;7.22;;;6.53;;
64950;SDS011;51482;47.014;7.652;2022-09-01T03:00:22;8.73;;;6.50;;
64950;SDS011;51482;47.014;7.652;2022-09-01T03:02:56;8.93;;;6.97;;
64950;SDS011;51482;47.014;7.652;2022-09-01T03:05:23;8.68;;;7.38;;
64950;SDS011;51482;47.014;7.652;2022-09-01T03:08:01;8.60;;;6.88;;
64950;SDS011;51482;47.014;7.652;2022-09-01T03:10:32;8.60;;;7.40;;
64950;SDS011;51482;47.014;7.652;2022-09-01T03:12:59;10.40;;;7.47;;
64950;SDS011;51482;47.014;7.652;2022-09-01T03:15:26;8.73;;;7.82;;
64950;SDS011;51482;47.014;7.652;2022-09-01T03:17:53;8.55;;;7.57;;
64950;SDS011;51482;47.014;7.652;2022-09-01T03:20:18;9.20;;;7.97;;
64950;SDS011;51482;47.014;7.652;2022-09-01T03:22:46;7.97;;;7.18;;
64950;SDS011;51482;47.014;7.652;2022-09-01T03:25:12;9.82;;;7.50;;
64950;SDS011;51482;47.014;7.652;2022-09-01T03:27:38;9.32;;;8.10;;
64950;SDS011;51482;47.014;7.652;2022-09-01T03:30:04;9.88;;;7.85;;
64950;SDS011;51482;47.014;7.652;2022-09-01T03:32:30;8.93;;;8.05;;
64950;SDS011;51482;47.014;7.652;2022-09-01T03:34:56;10.60;;;8.60;;
64950;SDS011;51482;47.014;7.652;2022-09-01T03:37:22;9.73;;;8.43;;
64950;SDS011;51482;47.014;7.652;2022-09-01T03:39:48;10.13;;;8.05;;
64950;SDS011;51482;47.014;7.652;2022-09-01T03:42:13;8.73;;;7.82;;
64950;SDS011;51482;47.014;7.652;2022-09-01T03:44:43;9.68;;;8.18;;
64950;SDS011;51482;47.014;7.652;2022-09-01T03:47:09;9.85;;;8.13;;
64950;SDS011;51482;47.014;7.652;2022-09-01T03:49:35;11.52;;;8.57;;
64950;SDS011;51482;47.014;7.652;2022-09-01T03:52:01;9.05;;;8.05;;
64950;SDS011;51482;47.014;7.652;2022-09-01T03:54:27;10.75;;;8.02;;
64950;SDS011;51482;47.014;7.652;2022-09-01T03:56:54;8.02;;;7.30;;
64950;SDS011;51482;47.014;7.652;2022-09-01T03:59:23;8.75;;;7.72;;
64950;SDS011;51482;47.014;7.652;2022-09-01T04:01:49;8.85;;;7.95;;
64950;SDS011;51482;47.014;7.652;2022-09-01T04:04:15;8.57;;;7.68;;
64950;SDS011;51482;47.014;7.652;2022-09-01T04:06:41;8.55;;;7.40;;
64950;SDS011;51482;47.014;7.652;2022-09-01T04:09:08;8.73;;;7.38;;
64950;SDS011;51482;47.014;7.652;2022-09-01T04:11:34;9.68;;;8.18;;
64950;SDS011;51482;47.014;7.652;2022-09-01T04:14:03;10.35;;;7.68;;
64950;SDS011;51482;47.014;7.652;2022-09-01T04:16:30;9.70;;;8.00;;
64950;SDS011;51482;47.014;7.652;2022-09-01T04:19:18;7.95;;;7.10;;
64950;SDS011;51482;47.014;7.652;2022-09-01T04:21:59;9.00;;;7.88;;
64950;SDS011;51482;47.014;7.652;2022-09-01T04:24:27;8.63;;;7.57;;
64950;SDS011;51482;47.014;7.652;2022-09-01T04:26:55;10.48;;;8.00;;
64950;SDS011;51482;47.014;7.652;2022-09-01T04:29:22;9.55;;;7.80;;
64950;SDS011;51482;47.014;7.652;2022-09-01T04:31:56;9.07;;;8.18;;
64950;SDS011;51482;47.014;7.652;2022-09-01T04:34:29;9.35;;;7.85;;
64950;SDS011;51482;47.014;7.652;2022-09-01T04:37:01;9.30;;;8.38;;
64950;SDS011;51482;47.014;7.652;2022-09-01T04:39:39;8.98;;;7.55;;
64950;SDS011;51482;47.014;7.652;2022-09-01T04:42:12;9.07;;;8.18;;
64950;SDS011;51482;47.014;7.652;2022-09-01T04:44:38;8.30;;;7.47;;
64950;SDS011;51482;47.014;7.652;2022-09-01T04:47:04;8.60;;;7.75;;
64950;SDS011;51482;47.014;7.652;2022-09-01T04:49:35;10.75;;;7.82;;
64950;SDS011;51482;47.014;7.652;2022-09-01T04:52:02;8.27;;;7.45;;
64950;SDS011;51482;47.014;7.652;2022-09-01T04:54:28;9.05;;;8.15;;
64950;SDS011;51482;47.014;7.652;2022-09-01T04:56:56;10.70;;;9.55;;
64950;SDS011;51482;47.014;7.652;2022-09-01T04:59:22;9.20;;;8.20;;
64950;SDS011;51482;47.014;7.652;2022-09-01T05:01:51;13.15;;;9.43;;
64950;SDS011;51482;47.014;7.652;2022-09-01T05:04:24;10.07;;;8.63;;
64950;SDS011;51482;47.014;7.652;2022-09-01T05:06:53;9.35;;;8.25;;
64950;SDS011;51482;47.014;7.652;2022-09-01T05:09:21;11.90;;;9.10;;
64950;SDS011;51482;47.014;7.652;2022-09-01T05:11:49;12.02;;;8.95;;
64950;SDS011;51482;47.014;7.652;2022-09-01T05:14:16;12.98;;;9.32;;
64950;SDS011;51482;47.014;7.652;2022-09-01T05:16:44;12.48;;;9.23;;
64950;SDS011;51482;47.014;7.652;2022-09-01T05:19:10;16.15;;;9.90;;
64950;SDS011;51482;47.014;7.652;2022-09-01T05:21:39;14.52;;;10.85;;
64950;SDS011;51482;47.014;7.652;2022-09-01T05:24:09;17.60;;;10.43;;
64950;SDS011;51482;47.014;7.652;2022-09-01T05:26:39;12.07;;;10.10;;
64950;SDS011;51482;47.014;7.652;2022-09-01T05:29:06;12.75;;;10.18;;
64950;SDS011;51482;47.014;7.652;2022-09-01T05:31:37;10.20;;;9.15;;
64950;SDS011;51482;47.014;7.652;2022-09-01T05:34:04;17.83;;;9.95;;
64950;SDS011;51482;47.014;7.652;2022-09-01T05:36:34;15.05;;;9.48;;
64950;SDS011;51482;47.014;7.652;2022-09-01T05:39:01;20.40;;;10.43;;
64950;SDS011;51482;47.014;7.652;2022-09-01T05:41:29;6.93;;;5.22;;
64950;SDS011;51482;47.014;7.652;2022-09-01T05:43:54;11.45;;;7.65;;
64950;SDS011;51482;47.014;7.652;2022-09-01T05:46:21;7.85;;;7.00;;
64950;SDS011;51482;47.014;7.652;2022-09-01T05:48:50;9.60;;;6.93;;
64950;SDS011;51482;47.014;7.652;2022-09-01T05:51:19;7.47;;;6.53;;
64950;SDS011;51482;47.014;7.652;2022-09-01T05:53:46;6.63;;;6.03;;
64950;SDS011;51482;47.014;7.652;2022-09-01T05:56:15;6.75;;;5.60;;
64950;SDS011;51482;47.014;7.652;2022-09-01T05:58:43;9.68;;;6.95;;
64950;SDS011;51482;47.014;7.652;2022-09-01T06:01:14;8.93;;;8.02;;
64950;SDS011;51482;47.014;7.652;2022-09-01T06:03:51;11.00;;;8.30;;
64950;SDS011;51482;47.014;7.652;2022-09-01T06:06:22;11.13;;;8.15;;
64950;SDS011;51482;47.014;7.652;2022-09-01T06:08:50;13.82;;;8.88;;
64950;SDS011;51482;47.014;7.652;2022-09-01T06:11:17;10.40;;;8.63;;
64950;SDS011;51482;47.014;7.652;2022-09-01T06:13:43;9.93;;;8.00;;
64950;SDS011;51482;47.014;7.652;2022-09-01T06:16:12;10.13;;;7.82;;
64950;SDS011;51482;47.014;7.652;2022-09-01T06:18:40;11.23;;;9.02;;
64950;SDS011;51482;47.014;7.652;2022-09-01T06:21:07;11.07;;;8.52;;
64950;SDS011;51482;47.014;7.652;2022-09-01T06:23:42;9.73;;;8.73;;
64950;SDS011;51482;47.014;7.652;2022-09-01T06:26:16;10.32;;;8.63;;
64950;SDS011;51482;47.014;7.652;2022-09-01T06:28:43;11.98;;;8.55;;
64950;SDS011;51482;47.014;7.652;2022-09-01T06:31:09;11.82;;;8.63;;
64950;SDS011;51482;47.014;7.652;2022-09-01T06:33:36;11.60;;;9.60;;
64950;SDS011;51482;47.014;7.652;2022-09-01T06:36:02;11.90;;;9.95;;
64950;SDS011;51482;47.014;7.652;2022-09-01T06:38:29;13.63;;;9.52;;
64950;SDS011;51482;47.014;7.652;2022-09-01T06:40:59;14.00;;;9.23;;
64950;SDS011;51482;47.014;7.652;2022-09-01T06:43:29;12.35;;;9.00;;
64950;SDS011;51482;47.014;7.652;2022-09-01T06:45:59;10.20;;;9.10;;
64950;SDS011;51482;47.014;7.652;2022-09-01T06:48:26;12.30;;;8.70;;
64950;SDS011;51482;47.014;7.652;2022-09-01T06:50:54;12.40;;;8.77;;
64950;SDS011;51482;47.014;7.652;2022-09-01T06:53:23;11.90;;;9.60;;
64950;SDS011;51482;47.014;7.652;2022-09-01T06:55:49;13.88;;;9.43;;
64950;SDS011;51482;47.014;7.652;2022-09-01T06:58:15;19.00;;;10.32;;
64950;SDS011;51482;47.014;7.652;2022-09-01T07:00:41;13.48;;;10.27;;
64950;SDS011;51482;47.014;7.652;2022-09-01T07:03:08;13.25;;;10.20;;
64950;SDS011;51482;47.014;7.652;2022-09-01T07:05:38;16.15;;;10.50;;
64950;SDS011;51482;47.014;7.652;2022-09-01T07:08:05;12.10;;;10.80;;
64950;SDS011;51482;47.014;7.652;2022-09-01T07:10:38;13.35;;;10.60;;
64950;SDS011;51482;47.014;7.652;2022-09-01T07:13:09;14.07;;;10.77;;
64950;SDS011;51482;47.014;7.652;2022-09-01T07:15:39;17.40;;;11.57;;
64950;SDS011;51482;47.014;7.652;2022-09-01T07:18:06;15.80;;;12.23;;
64950;SDS011;51482;47.014;7.652;2022-09-01T07:20:32;16.38;;;12.88;;
64950;SDS011;51482;47.014;7.652;2022-09-01T07:23:02;12.27;;;10.93;;
64950;SDS011;51482;47.014;7.652;2022-09-01T07:25:28;13.02;;;10.88;;
64950;SDS011;51482;47.014;7.652;2022-09-01T07:27:55;14.32;;;10.52;;
64950;SDS011;51482;47.014;7.652;2022-09-01T07:30:21;12.65;;;10.88;;
64950;SDS011;51482;47.014;7.652;2022-09-01T07:32:47;12.05;;;10.75;;
64950;SDS011;51482;47.014;7.652;2022-09-01T07:35:16;13.63;;;10.65;;
64950;SDS011;51482;47.014;7.652;2022-09-01T07:37:43;13.77;;;10.45;;
64950;SDS011;51482;47.014;7.652;2022-09-01T07:40:10;12.45;;;9.82;;
64950;SDS011;51482;47.014;7.652;2022-09-01T07:42:42;10.02;;;7.85;;
64950;SDS011;51482;47.014;7.652;2022-09-01T07:45:08;13.18;;;11.02;;
64950;SDS011;51482;47.014;7.652;2022-09-01T07:47:35;12.95;;;11.13;;
64950;SDS011;51482;47.014;7.652;2022-09-01T07:50:05;14.70;;;11.98;;
64950;SDS011;51482;47.014;7.652;2022-09-01T07:52:37;14.77;;;11.15;;
64950;SDS011;51482;47.014;7.652;2022-09-01T07:55:10;11.75;;;10.15;;
64950;SDS011;51482;47.014;7.652;2022-09-01T07:57:39;10.23;;;9.10;;
64950;SDS011;51482;47.014;7.652;2022-09-01T08:00:07;11.45;;;9.98;;
64950;SDS011;51482;47.014;7.652;2022-09-01T08:02:34;12.90;;;9.75;;
64950;SDS011;51482;47.014;7.652;2022-09-01T08:05:03;10.85;;;9.75;;
64950;SDS011;51482;47.014;7.652;2022-09-01T08:07:33;13.25;;;9.93;;
64950;SDS011;51482;47.014;7.652;2022-09-01T08:10:00;11.25;;;10.00;;
64950;SDS011;51482;47.014;7.652;2022-09-01T08:12:26;11.20;;;9.52;;
64950;SDS011;51482;47.014;7.652;2022-09-01T08:14:51;11.02;;;9.88;;
64950;SDS011;51482;47.014;7.652;2022-09-01T08:17:17;10.23;;;8.95;;
64950;SDS011;51482;47.014;7.652;2022-09-01T08:19:44;10.85;;;9.75;;
64950;SDS011;51482;47.014;7.652;2022-09-01T08:22:11;13.10;;;9.20;;
64950;SDS011;51482;47.014;7.652;2022-09-01T08:24:37;11.68;;;9.18;;
64950;SDS011;51482;47.014;7.652;2022-09-01T08:27:02;10.07;;;9.07;;
64950;SDS011;51482;47.014;7.652;2022-09-01T08:29:28;10.07;;;9.02;;
64950;SDS011;51482;47.014;7.652;2022-09-01T08:31:54;8.90;;;7.95;;
64950;SDS011;51482;47.014;7.652;2022-09-01T08:34:19;10.35;;;9.02;;
64950;SDS011;51482;47.014;7.652;2022-09-01T08:36:45;9.75;;;8.07;;
64950;SDS011;51482;47.014;7.652;2022-09-01T08:39:10;10.32;;;8.85;;
64950;SDS011;51482;47.014;7.652;2022-09-01T08:44:35;9.30;;;8.40;;
64950;SDS011;51482;47.014;7.652;2022-09-01T08:47:11;12.73;;;8.77;;
64950;SDS011;51482;47.014;7.652;2022-09-01T08:49:40;12.02;;;8.77;;
64950;SDS011;51482;47.014;7.652;2022-09-01T08:57:38;10.05;;;9.05;;
64950;SDS011;51482;47.014;7.652;2022-09-01T09:00:06;8.90;;;8.02;;
64950;SDS011;51482;47.014;7.652;2022-09-01T09:02:44;9.60;;;8.30;;
64950;SDS011;51482;47.014;7.652;2022-09-01T09:05:30;9.05;;;8.15;;
64950;SDS011;51482;47.014;7.652;2022-09-01T09:10:50;10.85;;;8.70;;
64950;SDS011;51482;47.014;7.652;2022-09-01T09:13:31;9.35;;;8.45;;
64950;SDS011;51482;47.014;7.652;2022-09-01T09:16:01;9.75;;;8.00;;
64950;SDS011;51482;47.014;7.652;2022-09-01T09:19:08;8.45;;;7.55;;
64950;SDS011;51482;47.014;7.652;2022-09-01T09:21:32;7.88;;;7.07;;
64950;SDS011;51482;47.014;7.652;2022-09-01T09:27:36;8.90;;;7.63;;
64950;SDS011;51482;47.014;7.652;2022-09-01T09:30:09;8.35;;;7.03;;
64950;SDS011;51482;47.014;7.652;2022-09-01T09:37:45;9.10;;;7.95;;
64950;SDS011;51482;47.014;7.652;2022-09-01T09:47:55;8.05;;;7.25;;
64950;SDS011;51482;47.014;7.652;2022-09-01T09:50:24;8.95;;;8.15;;
64950;SDS011;51482;47.014;7.652;2022-09-01T09:55:55;8.55;;;7.57;;
64950;SDS011;51482;47.014;7.652;2022-09-01T09:58:25;8.52;;;6.90;;
64950;SDS011;51482;47.014;7.652;2022-09-01T10:00:59;8.18;;;7.38;;
64950;SDS011;51482;47.014;7.652;2022-09-01T10:03:47;7.30;;;6.55;;
64950;SDS011;51482;47.014;7.652;2022-09-01T10:09:15;9.27;;;8.27;;
64950;SDS011;51482;47.014;7.652;2022-09-01T10:11:57;7.82;;;6.93;;
64950;SDS011;51482;47.014;7.652;2022-09-01T10:14:25;7.43;;;6.60;;
64950;SDS011;51482;47.014;7.652;2022-09-01T10:16:55;9.02;;;8.07;;
64950;SDS011;51482;47.014;7.652;2022-09-01T10:19:25;11.32;;;7.93;;
64950;SDS011;51482;47.014;7.652;2022-09-01T10:21:53;8.25;;;7.40;;
64950;SDS011;51482;47.014;7.652;2022-09-01T10:24:29;8.73;;;6.70;;
64950;SDS011;51482;47.014;7.652;2022-09-01T10:27:03;8.45;;;7.32;;
64950;SDS011;51482;47.014;7.652;2022-09-01T10:32:34;8.15;;;7.30;;
64950;SDS011;51482;47.014;7.652;2022-09-01T10:35:05;9.85;;;7.40;;
64950;SDS011;51482;47.014;7.652;2022-09-01T10:37:34;8.45;;;6.90;;
64950;SDS011;51482;47.014;7.652;2022-09-01T10:42:40;6.55;;;5.90;;
64950;SDS011;51482;47.014;7.652;2022-09-01T10:48:20;7.53;;;6.30;;
64950;SDS011;51482;47.014;7.652;2022-09-01T10:50:45;7.90;;;7.20;;
64950;SDS011;51482;47.014;7.652;2022-09-01T10:53:55;7.22;;;6.53;;
64950;SDS011;51482;47.014;7.652;2022-09-01T10:59:06;7.57;;;6.70;;
64950;SDS011;51482;47.014;7.652;2022-09-01T11:09:27;7.30;;;6.60;;
64950;SDS011;51482;47.014;7.652;2022-09-01T11:12:06;7.40;;;6.70;;
64950;SDS011;51482;47.014;7.652;2022-09-01T11:14:46;6.75;;;6.13;;
64950;SDS011;51482;47.014;7.652;2022-09-01T11:17:35;7.10;;;5.63;;
64950;SDS011;51482;47.014;7.652;2022-09-01T11:20:06;6.70;;;6.10;;
64950;SDS011;51482;47.014;7.652;2022-09-01T11:27:57;6.85;;;6.10;;
64950;SDS011;51482;47.014;7.652;2022-09-01T11:34:03;8.35;;;6.78;;
64950;SDS011;51482;47.014;7.652;2022-09-01T11:41:54;6.97;;;5.68;;
64950;SDS011;51482;47.014;7.652;2022-09-01T11:44:42;6.10;;;5.50;;
64950;SDS011;51482;47.014;7.652;2022-09-01T11:47:36;6.93;;;6.28;;
64950;SDS011;51482;47.014;7.652;2022-09-01T11:52:40;6.07;;;5.47;;
64950;SDS011;51482;47.014;7.652;2022-09-01T11:55:17;5.97;;;5.28;;
64950;SDS011;51482;47.014;7.652;2022-09-01T11:57:53;6.15;;;5.13;;
64950;SDS011;51482;47.014;7.652;2022-09-01T12:00:24;5.50;;;4.70;;
64950;SDS011;51482;47.014;7.652;2022-09-01T12:02:54;5.78;;;5.22;;
64950;SDS011;51482;47.014;7.652;2022-09-01T12:05:28;5.85;;;5.22;;
64950;SDS011;51482;47.014;7.652;2022-09-01T12:07:56;5.40;;;4.90;;
64950;SDS011;51482;47.014;7.652;2022-09-01T12:10:28;5.88;;;5.30;;
64950;SDS011;51482;47.014;7.652;2022-09-01T12:13:07;5.07;;;4.57;;
64950;SDS011;51482;47.014;7.652;2022-09-01T12:15:40;7.43;;;5.22;;
64950;SDS011;51482;47.014;7.652;2022-09-01T12:20:45;5.38;;;4.88;;
64950;SDS011;51482;47.014;7.652;2022-09-01T12:23:23;8.43;;;5.13;;
64950;SDS011;51482;47.014;7.652;2022-09-01T12:26:07;5.60;;;4.97;;
64950;SDS011;51482;47.014;7.652;2022-09-01T12:28:37;5.50;;;5.00;;
64950;SDS011;51482;47.014;7.652;2022-09-01T12:31:06;5.20;;;4.80;;
64950;SDS011;51482;47.014;7.652;2022-09-01T12:33:36;6.97;;;4.80;;
64950;SDS011;51482;47.014;7.652;2022-09-01T12:36:22;5.18;;;4.68;;
64950;SDS011;51482;47.014;7.652;2022-09-01T12:38:54;6.43;;;4.50;;
64950;SDS011;51482;47.014;7.652;2022-09-01T12:41:40;4.70;;;4.30;;
64950;SDS011;51482;47.014;7.652;2022-09-01T12:55:36;5.60;;;5.10;;
64950;SDS011;51482;47.014;7.652;2022-09-01T12:58:02;5.57;;;5.07;;
64950;SDS011;51482;47.014;7.652;2022-09-01T13:00:34;5.10;;;4.60;;
64950;SDS011;51482;47.014;7.652;2022-09-01T13:03:17;5.03;;;4.63;;
64950;SDS011;51482;47.014;7.652;2022-09-01T13:05:44;4.75;;;4.10;;
64950;SDS011;51482;47.014;7.652;2022-09-01T13:08:21;4.82;;;4.35;;
64950;SDS011;51482;47.014;7.652;2022-09-01T13:13:39;6.35;;;4.85;;
64950;SDS011;51482;47.014;7.652;2022-09-01T13:16:05;5.25;;;4.70;;
64950;SDS011;51482;47.014;7.652;2022-09-01T13:18:37;4.60;;;4.20;;
64950;SDS011;51482;47.014;7.652;2022-09-01T13:21:03;7.53;;;5.25;;
64950;SDS011;51482;47.014;7.652;2022-09-01T13:23:30;5.95;;;5.38;;
64950;SDS011;51482;47.014;7.652;2022-09-01T13:25:56;6.07;;;5.28;;
64950;SDS011;51482;47.014;7.652;2022-09-01T13:28:23;6.10;;;5.50;;
64950;SDS011;51482;47.014;7.652;2022-09-01T13:30:51;5.50;;;5.00;;
64950;SDS011;51482;47.014;7.652;2022-09-01T13:33:20;6.63;;;5.97;;
64950;SDS011;51482;47.014;7.652;2022-09-01T13:35:46;6.40;;;5.38;;
64950;SDS011;51482;47.014;7.652;2022-09-01T13:38:13;6.57;;;5.00;;
64950;SDS011;51482;47.014;7.652;2022-09-01T13:40:40;5.25;;;4.70;;
64950;SDS011;51482;47.014;7.652;2022-09-01T13:43:07;5.68;;;4.88;;
64950;SDS011;51482;47.014;7.652;2022-09-01T13:45:33;6.13;;;4.60;;
64950;SDS011;51482;47.014;7.652;2022-09-01T13:47:58;5.97;;;5.28;;
64950;SDS011;51482;47.014;7.652;2022-09-01T13:50:24;5.30;;;4.72;;
64950;SDS011;51482;47.014;7.652;2022-09-01T13:52:52;5.43;;;4.57;;
64950;SDS011;51482;47.014;7.652;2022-09-01T13:55:21;5.65;;;5.15;;
64950;SDS011;51482;47.014;7.652;2022-09-01T13:57:51;6.03;;;5.05;;
64950;SDS011;51482;47.014;7.652;2022-09-01T14:00:18;5.13;;;4.63;;
64950;SDS011;51482;47.014;7.652;2022-09-01T14:02:48;7.25;;;5.43;;
64950;SDS011;51482;47.014;7.652;2022-09-01T14:05:18;5.55;;;4.50;;
64950;SDS011;51482;47.014;7.652;2022-09-01T14:07:48;4.93;;;4.43;;
64950;SDS011;51482;47.014;7.652;2022-09-01T14:10:15;4.72;;;4.20;;
64950;SDS011;51482;47.014;7.652;2022-09-01T14:12:41;5.30;;;4.25;;
64950;SDS011;51482;47.014;7.652;2022-09-01T14:15:08;6.63;;;4.38;;
64950;SDS011;51482;47.014;7.652;2022-09-01T14:17:36;4.90;;;4.40;;
64950;SDS011;51482;47.014;7.652;2022-09-01T14:20:03;4.95;;;4.55;;
64950;SDS011;51482;47.014;7.652;2022-09-01T14:22:31;5.90;;;5.40;;
64950;SDS011;51482;47.014;7.652;2022-09-01T14:24:57;6.25;;;5.00;;
64950;SDS011;51482;47.014;7.652;2022-09-01T14:27:23;5.50;;;4.93;;
64950;SDS011;51482;47.014;7.652;2022-09-01T14:29:49;4.85;;;4.45;;
64950;SDS011;51482;47.014;7.652;2022-09-01T14:32:16;6.30;;;5.03;;
64950;SDS011;51482;47.014;7.652;2022-09-01T14:34:51;4.35;;;3.97;;
64950;SDS011;51482;47.014;7.652;2022-09-01T14:37:18;5.03;;;4.57;;
64950;SDS011;51482;47.014;7.652;2022-09-01T14:39:48;4.25;;;3.85;;
64950;SDS011;51482;47.014;7.652;2022-09-01T14:42:17;4.05;;;3.75;;
64950;SDS011;51482;47.014;7.652;2022-09-01T14:44:44;5.13;;;4.57;;
64950;SDS011;51482;47.014;7.652;2022-09-01T14:47:10;4.50;;;4.10;;
64950;SDS011;51482;47.014;7.652;2022-09-01T14:49:36;5.13;;;4.63;;
64950;SDS011;51482;47.014;7.652;2022-09-01T14:52:02;4.50;;;3.85;;
64950;SDS011;51482;47.014;7.652;2022-09-01T14:54:32;3.97;;;3.67;;
64950;SDS011;51482;47.014;7.652;2022-09-01T14:56:59;4.43;;;4.03;;
64950;SDS011;51482;47.014;7.652;2022-09-01T14:59:26;3.83;;;3.38;;
64950;SDS011;51482;47.014;7.652;2022-09-01T15:01:52;4.55;;;3.88;;
64950;SDS011;51482;47.014;7.652;2022-09-01T15:04:18;3.78;;;3.47;;
64950;SDS011;51482;47.014;7.652;2022-09-01T15:06:44;4.88;;;4.47;;
64950;SDS011;51482;47.014;7.652;2022-09-01T15:09:10;5.28;;;4.20;;
64950;SDS011;51482;47.014;7.652;2022-09-01T15:11:35;4.72;;;4.22;;
64950;SDS011;51482;47.014;7.652;2022-09-01T15:14:01;4.72;;;4.30;;
64950;SDS011;51482;47.014;7.652;2022-09-01T15:16:26;4.82;;;4.38;;
64950;SDS011;51482;47.014;7.652;2022-09-01T15:18:52;4.57;;;3.80;;
64950;SDS011;51482;47.014;7.652;2022-09-01T15:21:26;4.00;;;3.45;;
64950;SDS011;51482;47.014;7.652;2022-09-01T15:23:54;3.53;;;3.22;;
64950;SDS011;51482;47.014;7.652;2022-09-01T15:26:20;4.10;;;3.70;;
64950;SDS011;51482;47.014;7.652;2022-09-01T15:28:46;3.90;;;3.53;;
64950;SDS011;51482;47.014;7.652;2022-09-01T15:31:13;4.65;;;3.90;;
64950;SDS011;51482;47.014;7.652;2022-09-01T15:33:40;3.70;;;3.40;;
64950;SDS011;51482;47.014;7.652;2022-09-01T15:36:07;4.57;;;3.20;;
64950;SDS011;51482;47.014;7.652;2022-09-01T15:38:33;3.50;;;3.20;;
64950;SDS011;51482;47.014;7.652;2022-09-01T15:40:59;4.65;;;3.75;;
64950;SDS011;51482;47.014;7.652;2022-09-01T15:43:28;3.55;;;3.25;;
64950;SDS011;51482;47.014;7.652;2022-09-01T15:45:55;4.38;;;3.65;;
64950;SDS011;51482;47.014;7.652;2022-09-01T15:48:22;4.20;;;3.80;;
64950;SDS011;51482;47.014;7.652;2022-09-01T15:50:49;5.95;;;3.70;;
64950;SDS011;51482;47.014;7.652;2022-09-01T15:53:15;3.53;;;3.22;;
64950;SDS011;51482;47.014;7.652;2022-09-01T15:55:41;3.72;;;3.42;;
64950;SDS011;51482;47.014;7.652;2022-09-01T15:58:09;3.42;;;3.13;;
64950;SDS011;51482;47.014;7.652;2022-09-01T16:00:37;3.53;;;3.22;;
64950;SDS011;51482;47.014;7.652;2022-09-01T16:03:03;4.47;;;3.50;;
64950;SDS011;51482;47.014;7.652;2022-09-01T16:05:30;3.80;;;3.50;;
64950;SDS011;51482;47.014;7.652;2022-09-01T16:07:59;3.45;;;3.15;;
64950;SDS011;51482;47.014;7.652;2022-09-01T16:10:28;4.07;;;3.70;;
64950;SDS011;51482;47.014;7.652;2022-09-01T16:12:55;3.70;;;3.40;;
64950;SDS011;51482;47.014;7.652;2022-09-01T16:15:21;3.90;;;3.28;;
64950;SDS011;51482;47.014;7.652;2022-09-01T16:20:20;4.75;;;3.42;;
64950;SDS011;51482;47.014;7.652;2022-09-01T16:22:53;3.75;;;3.45;;
64950;SDS011;51482;47.014;7.652;2022-09-01T16:25:26;3.97;;;3.67;;
64950;SDS011;51482;47.014;7.652;2022-09-01T16:27:54;3.25;;;2.90;;
64950;SDS011;51482;47.014;7.652;2022-09-01T16:30:22;3.88;;;3.17;;